This is the latest recevied weather packets stored in our database for station/object HB9CYX-13. If no packets are shown the sender has not sent any weather packets the latest 1 day(s).
| Time | Temp. | Humidity | Pressure | Rain* | Wind** | Luminosity | Snow |
|---|---|---|---|---|---|---|---|
| 1778052016 | 12.22° C | 80% | 1009.3 hPa | 0 mm | - | - | - |
| 1778051279 | 11.67° C | 80% | 1009.4 hPa | 0 mm | - | - | - |
| 1778050542 | 11.67° C | 80% | 1009.4 hPa | 0 mm | - | - | - |
| 1778049805 | 12.22° C | 81% | 1009.3 hPa | 0 mm | - | - | - |
| 1778047593 | 10.56° C | 86% | 1009.5 hPa | 0 mm | - | - | - |
| 1778046856 | 10° C | 89% | 1009.7 hPa | 0 mm | - | - | - |
| 1778046119 | 9.44° C | 91% | 1009.8 hPa | 0 mm | - | - | - |
| 1778045382 | 9.44° C | 92% | 1010 hPa | 0 mm | - | - | - |
| 1778044644 | 8.89° C | 93% | 1010.2 hPa | 0 mm | - | - | - |
| 1778043170 | 8.89° C | 94% | 1010.1 hPa | 0 mm | - | - | - |
| 1778042433 | 8.33° C | 94% | 1010.2 hPa | 0 mm | - | - | - |
| 1778041695 | 8.33° C | 94% | 1010.2 hPa | 0 mm | - | - | - |
| 1778040958 | 8.33° C | 94% | 1010.1 hPa | 0 mm | - | - | - |
| 1778040221 | 8.89° C | 93% | 1009.9 hPa | 0 mm | - | - | - |
| 1778039484 | 8.89° C | 93% | 1010 hPa | 0 mm | - | - | - |
| 1778038009 | 8.89° C | 92% | 1010.3 hPa | 0 mm | - | - | - |
| 1778037272 | 8.89° C | 92% | 1010.5 hPa | 0 mm | - | - | - |
| 1778036535 | 8.89° C | 92% | 1010.5 hPa | 0 mm | - | - | - |
| 1778035798 | 8.89° C | 91% | 1010.6 hPa | 0 mm | - | - | - |
| 1778035061 | 9.44° C | 91% | 1010.9 hPa | 0 mm | - | - | - |
| 1778033586 | 10° C | 87% | 1010.8 hPa | 0 mm | - | - | - |
| 1778032112 | 10° C | 86% | 1010.9 hPa | 0 mm | - | - | - |
| 1778031375 | 10° C | 86% | 1011.2 hPa | 0 mm | - | - | - |
| 1778030637 | 10° C | 86% | 1011.4 hPa | 0 mm | - | - | - |
| 1778029900 | 10° C | 86% | 1011.5 hPa | 0 mm | - | - | - |
* Rain latest hour (hover to see other rain measurements)
** Current wind speed in m/s (hover to see current wind gust speed)